Database: COMPET-N - COOP - 3PL - 4PL - CNDOOM

WAD: Doom | Doom 2 | TNT | Plutonia | AV | HR | Scythe | MM | MM2 | Requiem | CE
Category: speed | nmare | max | nm100s | tyson | pacifist | fast | respawn | nomo | misc | built | all
Highscore: ALL | IWAD | PWAD | Country | Continent

< Previous map       Next map >
Remove: wad | map | category | player | allMAP27
MapPlayerTimeDateFilenameCommentsDL
MAP27: Monster CondoMarijo Sedlić11.002002-10-27lv27-011.zip - 269
MAP27: Monster CondoThomas Pilger12.001999-07-21lv27-012.zip - 120
MAP27: Monster CondoDaniel Lindgren13.001996-10-05lv27-013.zip - 147
MAP27: Monster CondoLaszlo Magori16.001996-09-20lv27-016.zip - 126
MAP27: Monster CondoDaniel Lindgren45.001996-06-12lv27-045.zip - 124
MAP27: Monster CondoKai-Uwe Humpert46.001996-05-31lv27-046.zip - 106
MAP27: Monster CondoKai-Uwe Humpert49.001996-05-28lv27-049.zip - 124
MAP27: Monster CondoMichael Kren54.001996-03-30lv27-054.zip - 82
MAP27: Monster CondoDaniel Lindgren56.001996-03-13lv27-056.zip - 120
MAP27: Monster CondoIstvan Pataki59.001996-03-09lv27-059.zip - 126
MAP27: Monster CondoKai-Uwe Humpert1:07.001996-05-02lv27-107.zip - 105
MAP27: Monster CondoDaniel Lindgren1:22.001996-02-05lv27-122.zip - 103
MAP27: Monster CondoIstvan Pataki1:49.001996-02-24lv27-149.zip - 96
MAP27: Monster CondoIstvan Pataki2:06.001996-02-20lv27-206.zip - 80
MAP27: Monster CondoIstvan Pataki2:14.001996-01-29lv27-214.zip - 118
MAP27: Monster CondoThomas Pilger18.001998-07-09nm27-018.zip - 209
MAP27: Monster CondoDaniel Lindgren19.001996-10-06nm27-019.zip - 123
MAP27: Monster CondoLaszlo Magori29.001996-09-20nm27-029.zip - 107
MAP27: Monster CondoDaniel Lindgren1:30.001996-03-13nm27-130.zip - 131
MAP27: Monster CondoIstvan Pataki3:15.001996-02-25nm27-315.zip - 115
MAP27: Monster CondoRadek Pecka4:11.002002-03-18lv27-411.zip - 248
MAP27: Monster CondoHenning Skogsto4:21.001998-07-04lv27-421.zip - 111
MAP27: Monster CondoPeo Sjoblom4:30.001997-12-03lv27-430.zip - 109
MAP27: Monster CondoDaniel Lindgren4:35.001997-06-26lv27-435.zip - 130
MAP27: Monster CondoPeo Sjoblom5:30.001997-05-23lv27-530.zip - 112
MAP27: Monster CondoDaniel Lindgren6:10.001996-06-13lv27-610.zip - 128
MAP27: Monster CondoEric Mullins7:53.001995-07-05lv27-753.zip - 101
MAP27: Monster CondoDaniel Lindgren8:49.001995-11-25lv27-849.zip - 128
MAP27: Monster CondoSven Huth15:14.001994-11-18l27-1514.zip - 1761
MAP27: Monster CondoHenning Skogsto1:33.001999-09-15ns27-133.zip - 243
MAP27: Monster CondoMarijo Sedlić1:34.001999-09-05ns27-134.zip - 126
MAP27: Monster CondoHenning Skogsto1:36.001999-07-20ns27-136.zip - 103
MAP27: Monster CondoMarijo Sedlić1:45.001999-07-16ns27-145.zip - 134
MAP27: Monster CondoSteffen Udluft3:05.001998-12-25ns27-305.zip - 118
MAP27: Monster CondoJim Leonard16:30.002002-01-24ty271630.zip - 245
MAP27: Monster CondoDaniel Lindgren22:06.001997-07-02ty272206.zip - 128
MAP27: Monster CondoMarijo Sedlić11.002002-10-27lv27-011.zip - 271
MAP27: Monster CondoThomas Pilger12.001999-07-21lv27-012.zip - 128
MAP27: Monster CondoMarko van der Want14.001999-04-20pa27-014.zip - 201
MAP27: Monster CondoRadek Pecka4:15.002003-06-13fa27-415.zip - 232
MAP27: Monster CondoRadek Pecka4:28.002003-06-11fa27-428.zip - 162
MAP27: Monster CondoHenning Skogsto5:40.001999-02-05fa27-540.zip - 105
MAP27: Monster CondoPeo Sjoblom6:13.001997-12-04fa27-613.zip - 93
MAP27: Monster CondoPeo Sjoblom8:26.001997-03-30fa27-826.zip - 110
MAP27: Monster CondoPeo Sjoblom19:51.001996-08-10f27-1951.zip - 125
MAP27: Monster CondoRadek Pecka2:52.002002-03-03re27-252.zip - 230
MAP27: Monster CondoHenning Skogsto3:04.002000-04-05re27-304.zip - 98
MAP27: Monster CondoVincent Catalaa3:11.001999-10-16re27-311.zip - 117
MAP27: Monster CondoHenning Skogsto3:26.001999-09-04re27-326.zip - 118
MAP27: Monster CondoZvonimir Bužanić3:28.001999-09-23re27-328.zip - 139
MAP27: Monster CondoHenning Skogsto3:34.001998-09-26re27-334.zip - 116
MAP27: Monster CondoSteffen Udluft4:30.001997-09-02re27-430.zip - 102
MAP27: Monster CondoLooper 32.972011-12-08d2703297.zip - 277
MAP27: Monster CondoAdam Hegyi36.311999-05-03d2703631.zip - 101
Remove: wad | map | category | player | all